Terminal Aerodrome Forecast
Issued by NWS

Home | Current Version | Previous Version | Text Only | Print | Product List | Glossary On
Versions: 1 2 3 4 5 6 7 8 9 10 11 12 13 14 15 16 17 18 19 20 21 22 23 24 25 26
000
FTAK31 PANC 110005 AAA
TAFADU
TAF AMD
PADU 110005Z 1100/1124 05012G18KT P6SM BKN015 OVC025
     FM110300 34014G23KT P6SM -SHRA SCT008 OVC015
     FM111500 34010KT P6SM -SHRA BKN008 OVC015=

USA.gov is the U.S. government's official web portal to all federal, state and local government web resources and services.